D Hanis, Texas
Current Conditions -  °F | °C
As of 4:51 PM on Tuesday 27 Jan 2015 (Local Time) from KHDO Reporting Station
Clear Clear  
Wind Chill: 79°   Ceiling: Unl
Heat Index: 79°   Visibility: 10mi
Dew Point: 31°   Wind: 5mph
Humidity: 17%   Direction: NA
Pressure: 30.14"   Gusts: NA
Location:  29.3507°N, 99.3117°W
Report Text: KHDO 272251Z AUTO VRB04KT 10SM CLR 26/M01 A3014 RMK AO2 SLP196 T02611006
Loading
Personal Weather Stations






























Interactive Weather Map New forecast layout! Learn more

10-Day Weather Forecast

Advertisements
Track Severe Weather on mobile